Flight Track Log - Related Links

Times and Time Zones

All times are in EST time to prevent confusion due to time zone crossing. See the SWA3313 flight status page for this flight to view local times or setup timezone preferences in your user account.

Time Position Orientation Groundspeed Altitude Reporting Facility
EST Latitude Longitude Course Direction KTS MPH feet Rate Location/Type
Tue 09:24:51 AM 29.6317 -95.2944 318° Northwest 152 175 1,100  Level Houston Center
Tue 09:25:28 AM 29.6525 -95.3158 318° Northwest 206 237 2,400 2,320 Climbing Houston Center
Tue 09:26:06 AM 29.6953 -95.3006 17° North 245 282 4,000 3,055 Climbing Houston Center
Tue 09:26:23 AM 29.7178 -95.2936 15° North 278 320 5,200 3,581 Climbing Houston Center
Tue 09:27:08 AM 29.7703 -95.2719 20° North 277 319 7,700 3,140 Climbing Houston Center
Tue 09:28:10 AM 29.8519 -95.2464 15° North 295 339 10,800 2,661 Climbing Houston Center
Tue 09:29:12 AM 29.9506 -95.2247 11° North 351 404 13,200 2,516 Climbing Houston Center
Tue 09:30:14 AM 30.0508 -95.2008 12° North 364 419 16,000 2,081 Climbing Houston Center
Tue 09:31:16 AM 30.1553 -95.1761 12° North 375 432 17,500 2,270 Climbing Houston Center
Tue 09:33:19 AM 30.3906 -95.0828 19° North 412 474 23,000 2,270 Climbing Houston Center
Tue 09:34:21 AM 30.4981 -95.0308 23° Northeast 416 479 24,500 1,597 Climbing Houston Center
Tue 09:35:23 AM 30.6092 -94.9767 23° Northeast 425 489 26,300 1,584 Climbing Houston Center
Tue 09:36:26 AM 30.7236 -94.9206 23° Northeast 438 504 27,800 1,500 Climbing Houston Center
Tue 09:37:27 AM 30.8425 -94.8617 23° Northeast 456 525 29,400 1,805 Climbing Houston Center
Tue 09:38:29 AM 30.9614 -94.8033 23° Northeast 462 532 31,500 2,419 Climbing Houston Center
Tue 09:39:31 AM 31.0972 -94.7364 23° Northeast 450 518 34,400 2,226 Climbing Houston Center
Tue 09:40:33 AM 31.1928 -94.6889 23° Northeast 432 497 36,100 1,258 Climbing Houston Center
Tue 09:41:35 AM 31.3050 -94.6328 23° Northeast 421 484 37,000 435 Climbing Houston Center
Tue 09:42:37 AM 31.4094 -94.5806 23° Northeast 414 476 37,000  Level Houston Center
Tue 09:43:39 AM 31.5364 -94.5172 23° Northeast 413 475 37,000  Level Houston Center
Tue 09:44:41 AM 31.6442 -94.4639 23° Northeast 418 481 37,000  Level Houston Center
Tue 09:45:43 AM 31.7514 -94.4089 24° Northeast 420 483 37,000  Level Houston Center
Tue 09:46:45 AM 31.8589 -94.3553 23° Northeast 420 483 37,000  Level Houston Center
Tue 09:47:47 AM 31.9672 -94.3000 23° Northeast 424 488 37,000  Level Houston Center
Tue 09:48:49 AM 32.0756 -94.2458 23° Northeast 423 487 37,000  Level Houston Center
Tue 09:49:51 AM 32.2047 -94.1806 23° Northeast 421 484 37,000  Level Houston Center
Tue 09:50:53 AM 32.3125 -94.1242 24° Northeast 423 487 37,000  Level Houston Center
Tue 09:51:55 AM 32.4211 -94.0697 23° Northeast 423 487 37,000  Level Houston Center
Tue 09:52:56 AM 32.5306 -94.0128 24° Northeast 427 491 37,000  Level Houston Center
Tue 09:53:58 AM 32.6414 -93.9578 23° Northeast 432 497 37,000  Level Houston Center
Tue 09:55:00 AM 32.7519 -93.8989 24° Northeast 435 501 37,000  Level Houston Center
Tue 09:56:02 AM 32.8861 -93.8314 23° Northeast 434 499 37,000  Level Houston Center
Tue 09:57:15 AM 33.0136 -93.7650 24° Northeast 439 505 37,000  Level Fort Worth Center
Tue 09:58:17 AM 33.1244 -93.7061 24° Northeast 440 506 37,000  Level Fort Worth Center
Tue 09:59:19 AM 33.2350 -93.6478 24° Northeast 440 506 37,000  Level Fort Worth Center
Tue 10:00:21 AM 33.3686 -93.5783 23° Northeast 442 509 37,000  Level Fort Worth Center
Tue 10:01:23 AM 33.4753 -93.5247 23° Northeast 436 502 37,000  Level Fort Worth Center
Tue 10:02:25 AM 33.6006 -93.4858 14° North 425 489 37,000  Level Fort Worth Center
Tue 10:03:27 AM 33.7150 -93.4544 13° North 423 487 37,000  Level Fort Worth Center
Tue 10:04:37 AM 33.8533 -93.4172 13° North 425 489 37,000  Level Memphis Center
Tue 10:05:39 AM 33.9700 -93.3853 13° North 428 493 37,000  Level Memphis Center
Tue 10:06:41 AM 34.0842 -93.3242 24° Northeast 443 510 37,000  Level Memphis Center
Tue 10:07:43 AM 34.1981 -93.2603 25° Northeast 452 520 37,000  Level Memphis Center
Tue 10:08:45 AM 34.3122 -93.1969 25° Northeast 452 520 37,000  Level Memphis Center
Tue 10:09:47 AM 34.4258 -93.1328 25° Northeast 453 521 37,000  Level Memphis Center
Tue 10:10:49 AM 34.5625 -93.0567 25° Northeast 451 519 37,000  Level Memphis Center
Tue 10:11:51 AM 34.6756 -92.9922 25° Northeast 450 518 37,000  Level Memphis Center
Tue 10:12:53 AM 34.7889 -92.9289 25° Northeast 449 517 37,000  Level Memphis Center
Tue 10:13:55 AM 34.9014 -92.8656 25° Northeast 448 516 37,000  Level Memphis Center
Tue 10:14:57 AM 35.0125 -92.8017 25° Northeast 446 513 37,000  Level Memphis Center
Tue 10:15:59 AM 35.1450 -92.7261 25° Northeast 444 511 37,000  Level Memphis Center
Tue 10:17:01 AM 35.2553 -92.6617 26° Northeast 444 511 37,000  Level Memphis Center
Tue 10:18:03 AM 35.3667 -92.5989 25° Northeast 445 512 37,000  Level Memphis Center
Tue 10:19:05 AM 35.4781 -92.5339 25° Northeast 447 514 37,000  Level Memphis Center
Tue 10:20:07 AM 35.5897 -92.4683 26° Northeast 448 516 37,000  Level Memphis Center
Tue 10:21:09 AM 35.7261 -92.3906 25° Northeast 452 520 37,000  Level Memphis Center
Tue 10:22:11 AM 35.8386 -92.3244 25° Northeast 450 518 37,000  Level Memphis Center
Tue 10:23:14 AM 35.9517 -92.2592 25° Northeast 450 518 37,000  Level Memphis Center
Tue 10:24:16 AM 36.0653 -92.1922 25° Northeast 453 521 37,000  Level Memphis Center
Tue 10:25:18 AM 36.1781 -92.1258 25° Northeast 450 518 37,000  Level Memphis Center
Tue 10:26:20 AM 36.3128 -92.0467 25° Northeast 449 517 37,000  Level Memphis Center
Tue 10:27:22 AM 36.4258 -91.9803 25° Northeast 449 517 37,000  Level Memphis Center
Tue 10:28:24 AM 36.5333 -91.9147 26° Northeast 448 516 37,000  Level Memphis Center
Tue 10:29:26 AM 36.6456 -91.8492 25° Northeast 446 513 37,000  Level Memphis Center
Tue 10:29:59 AM 36.7128 -91.8064 27° Northeast 443 510 37,000  Level Kansas City Center
Tue 10:31:00 AM 36.8233 -91.7397 26° Northeast 440 506 37,000  Level Kansas City Center
Tue 10:32:02 AM 36.9325 -91.6772 25° Northeast 434 499 37,000  Level Kansas City Center
Tue 10:33:04 AM 37.0403 -91.6119 26° Northeast 432 497 37,000  Level Kansas City Center
Tue 10:34:06 AM 37.1508 -91.5436 26° Northeast 437 503 37,000  Level Kansas City Center
Tue 10:35:06 AM 37.2822 -91.4656 25° Northeast 436 502 37,000  Level Kansas City Center
Tue 10:36:10 AM 37.3911 -91.3986 26° Northeast 435 501 37,000  Level Kansas City Center
Tue 10:37:11 AM 37.5019 -91.3317 26° Northeast 439 505 37,000  Level Kansas City Center
Tue 10:38:13 AM 37.6114 -91.2644 26° Northeast 438 504 37,000  Level Kansas City Center
Tue 10:39:15 AM 37.7208 -91.1972 26° Northeast 438 504 37,000  Level Kansas City Center
Tue 10:40:18 AM 37.8308 -91.1297 26° Northeast 439 505 37,000  Level Kansas City Center
Tue 10:41:19 AM 37.9522 -91.0542 26° Northeast 443 510 37,000  Level Kansas City Center
Tue 10:42:22 AM 38.0653 -90.9853 26° Northeast 448 516 37,000  Level Kansas City Center
Tue 10:43:22 AM 38.1772 -90.9142 27° Northeast 449 517 37,000  Level Kansas City Center
Tue 10:44:24 AM 38.2903 -90.8444 26° Northeast 450 518 37,000  Level Kansas City Center
Tue 10:45:28 AM 38.4061 -90.7950 18° North 441 507 37,000  Level Kansas City Center
Tue 10:46:29 AM 38.5464 -90.7356 18° North 441 507 37,000  Level Kansas City Center
Tue 10:47:30 AM 38.6531 -90.6889 19° North 444 511 37,000  Level Kansas City Center
Tue 10:48:33 AM 38.7969 -90.6286 18° North 450 518 37,000  Level Kansas City Center
Tue 10:49:34 AM 38.9164 -90.5764 19° North 452 520 37,000  Level Kansas City Center
Tue 10:50:37 AM 39.0283 -90.5272 19° North 453 521 37,000 -336 Level Kansas City Center
Tue 10:51:39 AM 39.1481 -90.4758 18° North 451 519 36,300 -836 Descending Kansas City Center
Tue 10:52:39 AM 39.2675 -90.4225 19° North 453 521 35,300 -919 Descending Kansas City Center
Tue 10:53:43 AM 39.3842 -90.3722 18° North 445 512 34,400 -1,008 Descending Kansas City Center
Tue 10:54:44 AM 39.5283 -90.3097 18° North 452 520 33,200 -1,016 Descending Kansas City Center
Tue 10:55:47 AM 39.6492 -90.2556 19° North 457 526 32,300 -919 Descending Kansas City Center
Tue 10:56:48 AM 39.7672 -90.2028 19° North 460 529 31,300 -629 Descending Kansas City Center
Tue 10:57:51 AM 39.8869 -90.1497 19° North 455 524 31,000 -145 Descending Kansas City Center
Tue 10:58:52 AM 40.0069 -90.0978 18° North 454 522 31,000  Level Kansas City Center
Tue 10:59:54 AM 40.1267 -90.0436 19° North 454 522 31,000 -429 Level Kansas City Center
Tue 11:00:58 AM 40.2636 -89.9536 27° Northeast 465 535 30,100 -919 Descending Kansas City Center
Tue 11:01:58 AM 40.3642 -89.8511 38° Northeast 461 531 29,100 -1,548 Descending Kansas City Center
Tue 11:03:02 AM 40.4631 -89.7506 38° Northeast 457 526 26,900 -2,030 Descending Kansas City Center
Tue 11:04:11 AM 40.5731 -89.6386 38° Northeast 438 504 24,600 -1,924 Descending Chicago Center
Tue 11:05:13 AM 40.6706 -89.5383 38° Northeast 437 503 22,700 -2,341 Descending Chicago Center
Tue 11:06:14 AM 40.7836 -89.4225 38° Northeast 434 499 19,800 -2,049 Descending Chicago Center
Tue 11:07:16 AM 40.8692 -89.3164 43° Northeast 428 493 18,500 -1,220 Descending Chicago Center
Tue 11:08:17 AM 40.9472 -89.2031 48° Northeast 418 481 17,300 -1,366 Descending Chicago Center
Tue 11:09:19 AM 41.0197 -89.0944 48° Northeast 404 465 15,700 -1,902 Descending Chicago Center
Tue 11:10:20 AM 41.0939 -88.9889 47° Northeast 393 452 13,400 -2,195 Descending Chicago Center
Tue 11:11:22 AM 41.1661 -88.8822 48° Northeast 389 448 11,200 -1,548 Descending Chicago Center
Tue 11:12:24 AM 41.2461 -88.7647 48° Northeast 356 410 10,200 -927 Descending Chicago Center
Tue 11:13:25 AM 41.3047 -88.6778 48° Northeast 324 373 9,300 -1,171 Descending Chicago Center
Tue 11:14:27 AM 41.3592 -88.5956 49° Northeast 301 346 7,800 -1,415 Descending Chicago Center
Tue 11:15:28 AM 41.4139 -88.5158 48° Northeast 294 338 6,400 -878 Descending Chicago Center
Tue 11:16:30 AM 41.4664 -88.4372 48° Northeast 287 330 6,000 -244 Descending Chicago Center
Tue 11:17:31 AM 41.5169 -88.3614 48° Northeast 276 318 5,900 -585 Descending Chicago Center
Tue 11:18:33 AM 41.5694 -88.2844 48° Northeast 276 318 4,800 -919 Descending Chicago Center
Tue 11:19:35 AM 41.6233 -88.2053 48° Northeast 281 323 4,000 -1,024 Descending Chicago Center
Tue 11:20:36 AM 41.6789 -88.1311 45° Northeast 281 323 2,700 -726 Descending Chicago Center
Tue 11:21:39 AM 41.7522 -88.0592 36° Northeast 276 318 2,500 -98 Descending Chicago Center
Tue 11:22:39 AM 41.8058 -88.0069 36° Northeast 258 297 2,500  Level Chicago Center
Tue 11:23:41 AM 41.8536 -87.9614 35° Northeast 232 267 2,500  Level Chicago Center
Tue 11:24:30 AM 41.8833 -87.9167 48° Northeast 190 219 2,500  Level Chicago TRACON
Tue 11:25:30 AM 41.8667 -87.8500 109° East 173 199 2,500 -368 Level Chicago TRACON
Tue 11:26:24 AM 41.8333 -87.8167 143° Southeast 154 177 1,800 -737 Descending Chicago TRACON
Tue 11:27:24 AM 41.8000 -87.7833 143° Southeast 128 147 1,100 -700 Descending Chicago TRACON

Login

Don't have an account? Register now (free) for customized features, flight alerts, and more!